Phoenix Cross — MRBQ7 — position and weather

sailwx.info

Track history (hours):
 
Tides and Currents Weather Stations Pressure Air Temp Water Temp Dewpoint Dewpoint Depression Visibility Wind Speed Wind Dir Waves Ship Positions

Phoenix Cross

Last reported at 2014-Jul-12 04:32 UTC. Time now 2014-Jul-25 16:03 UTC.
Position N 54°35' W 001°13'.
Warning: this ship's position is 13 days out of date.

Date/timePositionNaut miles runAvg speedWind from/ knotsBaromVisibWave heightAir tempDewpointWater temp
2014-Jul-12 04:32N 54°35' W 001°13'0 0.0
2014-Jul-12 03:33N 54°35' W 001°13'0 0.0
2014-Jul-12 01:04N 54°35' W 001°13'3 0.5
2014-Jul-11 19:14N 54°37' W 001°09'2 2.0
2014-Jul-11 18:16N 54°39' W 001°09'5 3.8
2014-Jul-11 17:03N 54°35' W 001°13'0 0.0
2014-Jul-11 16:33N 54°35' W 001°13'0 0.0
2014-Jul-11 15:33N 54°35' W 001°13'0 0.0
2014-Jul-11 14:33N 54°35' W 001°13'2 2.3
2014-Jul-11 13:33N 54°36' W 001°09'2 2.3
2014-Jul-11 12:33N 54°35' W 001°13'0 0.0
2014-Jul-11 11:32N 54°35' W 001°13'0 0.0
2014-Jul-11 10:33N 54°35' W 001°13'0 0.0
2014-Jul-11 09:33N 54°35' W 001°13'0 0.0
2014-Jul-11 08:31N 54°35' W 001°13'0 0.0
2014-Jul-11 07:31N 54°35' W 001°13'0 0.0
2014-Jul-11 06:33N 54°35' W 001°13'0 0.0
2014-Jul-11 04:19N 54°35' W 001°13'0 0.0
2014-Jul-11 03:13N 54°35' W 001°13'3 1.3
2014-Jul-11 01:16N 54°37' W 001°09'3 0.4
2014-Jul-10 18:13N 54°35' W 001°13'0 0.0
2014-Jul-10 16:17N 54°35' W 001°13'0 0.0
2014-Jul-10 15:32N 54°35' W 001°13'0 0.0
2014-Jul-10 14:33N 54°35' W 001°13'2 2.3
2014-Jul-10 13:33N 54°36' W 001°10'1 1.0
2014-Jul-10 12:33N 54°37' W 001°09'0 0.1
2014-Jul-10 11:33N 54°37' W 001°09'1 0.5
2014-Jul-10 10:33N 54°38' W 001°09'4 3.6
2014-Jul-10 09:33N 54°35' W 001°13'0 0.0
2014-Jul-08 07:34N 54°35' W 001°13'0 0.0
2014-Jul-08 06:33N 54°35' W 001°13'0 0.0
2014-Jul-08 05:34N 54°35' W 001°13'0 0.0
2014-Jul-07 17:34N 54°35' W 001°13'0 0.0
2014-Jul-07 16:33N 54°35' W 001°13'0 0.0
2014-Jul-07 15:32N 54°35' W 001°13'0 0.0
2014-Jul-07 14:33N 54°35' W 001°13'0 0.0
2014-Jul-07 13:33N 54°35' W 001°13'0 0.0
2014-Jul-07 12:33N 54°35' W 001°13'0 0.0
2014-Jul-07 11:30N 54°35' W 001°13'0 0.0
2014-Jul-07 10:31N 54°35' W 001°13'0 0.0
2014-Jul-07 09:31N 54°35' W 001°13'1 1.5
2014-Jul-07 08:33N 54°36' W 001°11'1 1.4
2014-Jul-07 07:33N 54°35' W 001°13'0 0.0
2014-Jul-07 06:32N 54°35' W 001°13'0 0.0
2014-Jul-07 05:32N 54°35' W 001°13'0 0.0
2014-Jul-06 13:33N 54°35' W 001°13'0 0.0
2014-Jul-06 12:30N 54°35' W 001°13'0 0.0
2014-Jul-06 11:34N 54°35' W 001°13'0 0.0
2014-Jul-06 10:31N 54°35' W 001°13'0 0.0
2014-Jul-06 09:34N 54°35' W 001°13'0 0.0
2014-Jul-06 08:30N 54°35' W 001°13'0 0.0
2014-Jul-06 07:33N 54°35' W 001°13'3 0.2
2014-Jul-05 18:30N 54°37' W 001°10'2 2.2
2014-Jul-05 17:33N 54°35' W 001°11'1 1.1
2014-Jul-05 16:33N 54°35' W 001°13'0 0.0
2014-Jul-05 15:32N 54°35' W 001°13'0 0.0
2014-Jul-05 14:33N 54°35' W 001°13'0 0.0
2014-Jul-05 13:32N 54°35' W 001°13'0 0.0
2014-Jul-05 12:33N 54°35' W 001°13'0 0.0
2014-Jul-05 11:33N 54°35' W 001°13'0 0.0
2014-Jul-05 10:32N 54°35' W 001°13'0 0.0
2014-Jul-05 09:34N 54°35' W 001°13'0 0.0
2014-Jul-05 08:34N 54°35' W 001°13'0 0.0
2014-Jul-05 07:30N 54°35' W 001°13'0 0.0
2014-Jul-05 06:33N 54°35' W 001°13'0 0.0
2014-Jul-05 05:33N 54°35' W 001°13'0 0.0
2014-Jul-04 15:31N 54°35' W 001°13'0 0.0
2014-Jul-04 14:32N 54°35' W 001°13'1 1.5
2014-Jul-04 13:33N 54°36' W 001°11'2 1.8
2014-Jul-04 12:32N 54°37' W 001°09'0 0.0
2014-Jul-04 11:32N 54°37' W 001°09'3 3.1
2014-Jul-04 10:33N 54°35' W 001°12'0 0.2
2014-Jul-04 09:32N 54°35' W 001°13'0 0.0
2014-Jul-04 08:32N 54°35' W 001°13'0 0.0
2014-Jul-04 07:32N 54°35' W 001°13'0 0.0
2014-Jul-04 06:32N 54°35' W 001°13'0 0.0
2014-Jul-04 05:33N 54°35' W 001°13'2 0.2
2014-Jul-03 18:05N 54°36' W 001°10'1 2.5
2014-Jul-03 17:34N 54°38' W 001°09'3 3.2
2014-Jul-03 16:30N 54°35' W 001°13'0 0.0
2014-Jul-03 15:34N 54°35' W 001°13'0 0.0
2014-Jul-03 14:32N 54°35' W 001°13'0 0.0
2014-Jul-03 13:32N 54°35' W 001°13'0 0.0
2014-Jul-03 12:32N 54°35' W 001°13'0 0.0
2014-Jul-03 11:32N 54°35' W 001°13'0 0.0
2014-Jul-03 10:34N 54°35' W 001°13'0 0.0
2014-Jul-03 09:33N 54°35' W 001°13'0 0.0
2014-Jul-03 08:33N 54°35' W 001°13'0 0.0
2014-Jul-03 07:33N 54°35' W 001°13'2 2.3
2014-Jul-03 06:33N 54°36' W 001°10'2 0.2
2014-Jul-02 17:26N 54°35' W 001°13'0 0.0
2014-Jul-02 16:34N 54°35' W 001°13'0 0.0
2014-Jul-02 15:33N 54°35' W 001°13'0 0.0
2014-Jul-02 14:33N 54°35' W 001°13'0 0.0
2014-Jul-02 13:33N 54°35' W 001°13'0 0.0
2014-Jul-02 12:33N 54°35' W 001°13'0 0.0
2014-Jul-02 11:33N 54°35' W 001°13'0 0.0
2014-Jul-02 10:34N 54°35' W 001°13'0 0.0
2014-Jul-02 09:32N 54°35' W 001°13'0 0.0
2014-Jul-02 08:34N 54°35' W 001°13'0 0.0
2014-Jul-02 07:34N 54°35' W 001°13'0 0.1
2014-Jul-02 06:33N 54°35' W 001°12'3 3.1
2014-Jul-02 05:33N 54°38' W 001°10'  
Track history (hours):
 
Tides and Currents Weather Stations Pressure Air Temp Water Temp Dewpoint Dewpoint Depression Visibility Wind Speed Wind Dir Waves Ship Positions

Phoenix Cross

Last reported at 2014-Jul-12 04:32 UTC. Time now 2014-Jul-25 16:03 UTC.
Position N 54°35' W 001°13'.
Warning: this ship's position is 13 days out of date.

Date/timePositionNaut miles runAvg speedWind from/ knotsBaromVisibWave heightAir tempDewpointWater temp
2014-Jul-12 04:32N 54°35' W 001°13'0 0.0
2014-Jul-12 03:33N 54°35' W 001°13'0 0.0
2014-Jul-12 01:04N 54°35' W 001°13'3 0.5
2014-Jul-11 19:14N 54°37' W 001°09'2 2.0
2014-Jul-11 18:16N 54°39' W 001°09'5 3.8
2014-Jul-11 17:03N 54°35' W 001°13'0 0.0
2014-Jul-11 16:33N 54°35' W 001°13'0 0.0
2014-Jul-11 15:33N 54°35' W 001°13'0 0.0
2014-Jul-11 14:33N 54°35' W 001°13'2 2.3
2014-Jul-11 13:33N 54°36' W 001°09'2 2.3
2014-Jul-11 12:33N 54°35' W 001°13'0 0.0
2014-Jul-11 11:32N 54°35' W 001°13'0 0.0
2014-Jul-11 10:33N 54°35' W 001°13'0 0.0
2014-Jul-11 09:33N 54°35' W 001°13'0 0.0
2014-Jul-11 08:31N 54°35' W 001°13'0 0.0
2014-Jul-11 07:31N 54°35' W 001°13'0 0.0
2014-Jul-11 06:33N 54°35' W 001°13'0 0.0
2014-Jul-11 04:19N 54°35' W 001°13'0 0.0
2014-Jul-11 03:13N 54°35' W 001°13'3 1.3
2014-Jul-11 01:16N 54°37' W 001°09'3 0.4
2014-Jul-10 18:13N 54°35' W 001°13'0 0.0
2014-Jul-10 16:17N 54°35' W 001°13'0 0.0
2014-Jul-10 15:32N 54°35' W 001°13'0 0.0
2014-Jul-10 14:33N 54°35' W 001°13'2 2.3
2014-Jul-10 13:33N 54°36' W 001°10'1 1.0
2014-Jul-10 12:33N 54°37' W 001°09'0 0.1
2014-Jul-10 11:33N 54°37' W 001°09'1 0.5
2014-Jul-10 10:33N 54°38' W 001°09'4 3.6
2014-Jul-10 09:33N 54°35' W 001°13'0 0.0
2014-Jul-08 07:34N 54°35' W 001°13'0 0.0
2014-Jul-08 06:33N 54°35' W 001°13'0 0.0
2014-Jul-08 05:34N 54°35' W 001°13'0 0.0
2014-Jul-07 17:34N 54°35' W 001°13'0 0.0
2014-Jul-07 16:33N 54°35' W 001°13'0 0.0
2014-Jul-07 15:32N 54°35' W 001°13'0 0.0
2014-Jul-07 14:33N 54°35' W 001°13'0 0.0
2014-Jul-07 13:33N 54°35' W 001°13'0 0.0
2014-Jul-07 12:33N 54°35' W 001°13'0 0.0
2014-Jul-07 11:30N 54°35' W 001°13'0 0.0
2014-Jul-07 10:31N 54°35' W 001°13'0 0.0
2014-Jul-07 09:31N 54°35' W 001°13'1 1.5
2014-Jul-07 08:33N 54°36' W 001°11'1 1.4
2014-Jul-07 07:33N 54°35' W 001°13'0 0.0
2014-Jul-07 06:32N 54°35' W 001°13'0 0.0
2014-Jul-07 05:32N 54°35' W 001°13'0 0.0
2014-Jul-06 13:33N 54°35' W 001°13'0 0.0
2014-Jul-06 12:30N 54°35' W 001°13'0 0.0
2014-Jul-06 11:34N 54°35' W 001°13'0 0.0
2014-Jul-06 10:31N 54°35' W 001°13'0 0.0
2014-Jul-06 09:34N 54°35' W 001°13'0 0.0
2014-Jul-06 08:30N 54°35' W 001°13'0 0.0
2014-Jul-06 07:33N 54°35' W 001°13'3 0.2
2014-Jul-05 18:30N 54°37' W 001°10'2 2.2
2014-Jul-05 17:33N 54°35' W 001°11'1 1.1
2014-Jul-05 16:33N 54°35' W 001°13'0 0.0
2014-Jul-05 15:32N 54°35' W 001°13'0 0.0
2014-Jul-05 14:33N 54°35' W 001°13'0 0.0
2014-Jul-05 13:32N 54°35' W 001°13'0 0.0
2014-Jul-05 12:33N 54°35' W 001°13'0 0.0
2014-Jul-05 11:33N 54°35' W 001°13'0 0.0
2014-Jul-05 10:32N 54°35' W 001°13'0 0.0
2014-Jul-05 09:34N 54°35' W 001°13'0 0.0
2014-Jul-05 08:34N 54°35' W 001°13'0 0.0
2014-Jul-05 07:30N 54°35' W 001°13'0 0.0
2014-Jul-05 06:33N 54°35' W 001°13'0 0.0
2014-Jul-05 05:33N 54°35' W 001°13'0 0.0
2014-Jul-04 15:31N 54°35' W 001°13'0 0.0
2014-Jul-04 14:32N 54°35' W 001°13'1 1.5
2014-Jul-04 13:33N 54°36' W 001°11'2 1.8
2014-Jul-04 12:32N 54°37' W 001°09'0 0.0
2014-Jul-04 11:32N 54°37' W 001°09'3 3.1
2014-Jul-04 10:33N 54°35' W 001°12'0 0.2
2014-Jul-04 09:32N 54°35' W 001°13'0 0.0
2014-Jul-04 08:32N 54°35' W 001°13'0 0.0
2014-Jul-04 07:32N 54°35' W 001°13'0 0.0
2014-Jul-04 06:32N 54°35' W 001°13'0 0.0
2014-Jul-04 05:33N 54°35' W 001°13'2 0.2
2014-Jul-03 18:05N 54°36' W 001°10'1 2.5
2014-Jul-03 17:34N 54°38' W 001°09'3 3.2
2014-Jul-03 16:30N 54°35' W 001°13'0 0.0
2014-Jul-03 15:34N 54°35' W 001°13'0 0.0
2014-Jul-03 14:32N 54°35' W 001°13'0 0.0
2014-Jul-03 13:32N 54°35' W 001°13'0 0.0
2014-Jul-03 12:32N 54°35' W 001°13'0 0.0
2014-Jul-03 11:32N 54°35' W 001°13'0 0.0
2014-Jul-03 10:34N 54°35' W 001°13'0 0.0
2014-Jul-03 09:33N 54°35' W 001°13'0 0.0
2014-Jul-03 08:33N 54°35' W 001°13'0 0.0
2014-Jul-03 07:33N 54°35' W 001°13'2 2.3
2014-Jul-03 06:33N 54°36' W 001°10'2 0.2
2014-Jul-02 17:26N 54°35' W 001°13'0 0.0
2014-Jul-02 16:34N 54°35' W 001°13'0 0.0
2014-Jul-02 15:33N 54°35' W 001°13'0 0.0
2014-Jul-02 14:33N 54°35' W 001°13'0 0.0
2014-Jul-02 13:33N 54°35' W 001°13'0 0.0
2014-Jul-02 12:33N 54°35' W 001°13'0 0.0
2014-Jul-02 11:33N 54°35' W 001°13'0 0.0
2014-Jul-02 10:34N 54°35' W 001°13'0 0.0
2014-Jul-02 09:32N 54°35' W 001°13'0 0.0
2014-Jul-02 08:34N 54°35' W 001°13'0 0.0
2014-Jul-02 07:34N 54°35' W 001°13'0 0.1
2014-Jul-02 06:33N 54°35' W 001°12'3 3.1
2014-Jul-02 05:33N 54°38' W 001°10'  

Dump ship's entire track history